• Join FlightAware (Why Join?)
  • Login
  • US Flag 
04:15AM EDT


 

Airport Tracker/Info


-or-


 

Live Flight TrackerFlight Track Log ✈ UAL5881 ✈ 01-May-2013 ✈ KORD - KMDT

Flight Track Log - Related Links

Times and Time Zones

All times are in EDT time to prevent confusion due to time zone crossing. See the UAL5881 flight status page for this flight to view local times or setup timezone preferences in your user account.

Time Position Orientation Groundspeed Altitude Reporting Facility
EDT Latitude Longitude Course Direction KTS MPH feet Rate Location/Type
08:26AM 41.9333 -87.8833 75° East 194 223 2,800  Level Chicago TRACON
08:27AM 41.9500 -87.8000 75° East 255 293 4,500 1,140 Climbing Chicago TRACON
08:28AM 41.9500 -87.7000 90° East 274 315 5,000 1,200 Climbing Chicago TRACON
08:29AM 41.9500 -87.6000 90° East 281 323 7,000 2,280 Climbing Chicago TRACON
08:30AM 41.9500 -87.5000 90° East 284 327 9,400 2,040 Climbing Chicago TRACON
08:32AM 41.9467 -87.2708 91° East 293 337 13,700 1,500 Climbing Chicago Center
08:33AM 41.9439 -87.1411 92° East 335 386 14,600 1,200 Climbing Chicago Center
08:34AM 41.9347 -86.9786 94° East 360 414 16,200 1,380 Climbing Chicago Center
08:35AM 41.9281 -86.8394 94° East 372 428 17,500 1,140 Climbing Chicago Center
08:36AM 41.9211 -86.6989 94° East 378 435 18,600 1,140 Climbing Chicago Center
08:37AM 41.9128 -86.5525 94° East 385 443 19,900 1,260 Climbing Chicago Center
08:38AM 41.9047 -86.4047 94° East 394 453 21,200 1,200 Climbing Chicago Center
08:39AM 41.8956 -86.2564 95° East 398 458 22,400 1,200 Climbing Chicago Center
08:40AM 41.8875 -86.1050 94° East 405 466 23,700 1,320 Climbing Chicago Center
08:41AM 41.8767 -85.9250 95° East 404 465 25,200 1,320 Climbing Chicago Center
08:42AM 41.8672 -85.7753 95° East 403 464 26,500 1,200 Climbing Chicago Center
08:43AM 41.8594 -85.6256 94° East 401 461 27,700 1,200 Climbing Chicago Center
08:44AM 41.8503 -85.4761 95° East 398 458 29,000 1,200 Climbing Chicago Center
08:45AM 41.8406 -85.3256 95° East 400 460 30,300 1,260 Climbing Chicago Center
08:46AM 41.8297 -85.1767 96° East 397 457 31,600 1,200 Climbing Chicago Center
08:47AM 41.8250 -85.0506 93° East 403 464 32,600 1,200 Climbing Cleveland Center
08:48AM 41.8139 -84.9019 96° East 403 464 33,900 1,140 Climbing Cleveland Center
08:49AM 41.8028 -84.7508 96° East 408 470 34,900 540 Climbing Cleveland Center
08:50AM 41.7897 -84.5967 96° East 408 470 35,000  Climbing Cleveland Center
08:51AM 41.7806 -84.4344 94° East 420 483 35,000  Level Cleveland Center
08:52AM 41.7717 -84.2586 94° East 425 489 35,000  Level Cleveland Center
08:53AM 41.7706 -84.0942 90° East 425 489 35,000  Level Cleveland Center
08:54AM 41.7419 -83.9394 104° East 425 489 35,000  Level Cleveland Center
08:55AM 41.7089 -83.7792 105° East 430 495 35,000  Level Cleveland Center
08:56AM 41.6758 -83.6219 106° East 440 506 35,000  Level Cleveland Center
08:57AM 41.6442 -83.4675 105° East 440 506 35,000  Level Cleveland Center
08:58AM 41.6086 -83.3103 107° East 440 506 35,000  Level Cleveland Center
08:59AM 41.5808 -83.1536 103° East 440 506 35,000  Level Cleveland Center
09:00AM 41.5467 -82.9969 106° East 440 506 35,000  Level Cleveland Center
09:01AM 41.5125 -82.8431 106° East 440 506 35,000  Level Cleveland Center
09:02AM 41.4800 -82.6894 106° East 440 506 35,000  Level Cleveland Center
09:03AM 41.4453 -82.5306 106° East 440 506 35,000  Level Cleveland Center
09:04AM 41.4103 -82.3772 107° East 440 506 35,000  Level Cleveland Center
09:05AM 41.3772 -82.2186 105° East 440 506 35,000  Level Cleveland Center
09:06AM 41.3439 -82.0628 106° East 440 506 35,000  Level Cleveland Center
09:07AM 41.3103 -81.9044 106° East 440 506 35,000  Level Cleveland Center
09:08AM 41.2744 -81.7489 107° East 440 506 35,000  Level Cleveland Center
09:09AM 41.2383 -81.5936 107° East 445 512 35,000  Level Cleveland Center
09:10AM 41.2022 -81.4358 107° East 445 512 35,000 -240 Level Cleveland Center
09:11AM 41.1636 -81.2836 109° East 445 512 34,600 -660 Descending Cleveland Center
09:12AM 41.1269 -81.1261 107° East 440 506 33,700 -840 Descending Cleveland Center
09:13AM 41.0983 -80.9881 105° East 445 512 33,000 -360 Descending Cleveland Center
09:14AM 41.0611 -80.8336 108° East 440 506 33,000  Level Cleveland Center
09:15AM 41.0261 -80.6822 107° East 440 506 33,000  Level Cleveland Center
09:16AM 40.9886 -80.5253 108° East 440 506 33,000 -60 Level Cleveland Center
09:17AM 40.9531 -80.3742 107° East 440 506 32,900 -660 Descending Cleveland Center
09:18AM 40.9150 -80.2178 108° East 440 506 31,800 -1,260 Descending Cleveland Center
09:19AM 40.8769 -80.0642 108° East 440 506 30,500 -1,260 Descending Cleveland Center
09:20AM 40.8386 -79.9108 108° East 440 506 29,300 -1,260 Descending Cleveland Center
09:21AM 40.8022 -79.7519 107° East 440 506 28,000 -1,260 Descending Cleveland Center
09:22AM 40.7406 -79.6131 120° Southeast 445 512 26,800 -1,320 Descending Cleveland Center
09:23AM 40.6622 -79.4828 128° Southeast 445 512 25,500 -1,200 Descending Cleveland Center
09:24AM 40.5858 -79.3472 127° Southeast 451 519 24,400 -780 Descending Cleveland Center
09:25AM 40.5425 -79.1978 111° Southeast 434 499 24,000 -600 Descending Cleveland Center
09:26AM 40.5258 -79.0369 98° East 434 499 23,200 -1,140 Descending Cleveland Center
09:27AM 40.5111 -78.8844 97° East 429 494 21,800 -1,500 Descending Cleveland Center
09:28AM 40.4942 -78.7347 98° East 429 494 20,200 -1,620 Descending Cleveland Center
09:29AM 40.4792 -78.5822 97° East 423 487 18,600 -1,500 Descending Cleveland Center
09:30AM 40.4619 -78.4408 99° East 410 472 17,300 -1,620 Descending Cleveland Center
09:32AM 40.4389 -78.2600 99° East 396 456 14,900 -1,800 Descending New York Center
09:33AM 40.4264 -78.1278 97° East 376 433 13,100 -1,800 Descending New York Center
09:34AM 40.4111 -78.0033 99° East 356 410 11,400 -1,080 Descending New York Center
09:35AM 40.3961 -77.8708 98° East 356 410 11,000 -300 Descending New York Center
09:36AM 40.3811 -77.7386 98° East 356 410 10,900 -480 Descending New York Center
09:37AM 40.3672 -77.6200 99° East 328 377 10,100 -1,080 Descending New York Center
09:38AM 40.3575 -77.5317 98° East 284 327 8,800 -1,380 Descending New York Center
09:39AM 40.3447 -77.4269 99° East 264 304 7,400 -1,320 Descending New York Center
09:40AM 40.3197 -77.3511 113° Southeast 252 290 6,200 -1,140 Descending New York Center
09:41AM 40.2808 -77.2631 120° Southeast 252 290 5,100 -600 Descending New York Center
09:42AM 40.2494 -77.1894 119° Southeast 258 297 5,100  Level New York Center
09:43AM 40.2083 -77.1014 121° Southeast 258 297 5,100 -60 Level New York Center
09:44AM 40.1767 -77.0331 121° Southeast 253 291 5,000 -120 Descending New York Center
09:45AM 40.1439 -76.9433 116° Southeast 253 291 4,900 -720 Descending New York Center
09:46AM 40.1211 -76.8569 109° East 248 285 3,700 -960 Descending New York Center
09:47AM 40.1022 -76.7822 108° East 237 273 3,100 -540 Descending New York Center
09:48AM 40.1094 -76.7203 81° East 190 219 2,700 -420 Descending New York Center
09:50AM 40.1833 -76.7500 343° North  Level FlightAware Approximate
09:57AM 40.1932 -76.7626 343° North  Level Estimated
09:58AM 40.1932 -76.7626 343° North  Level Estimated